sensor_id;sensor_type;location;lat;lon;timestamp;pressure;altitude;pressure_sealevel;temperature
34023;BMP280;20673;48.980;8.138;2023-10-13T00:01:58;100126.18;;;16.58
34023;BMP280;20673;48.980;8.138;2023-10-13T00:04:29;100125.40;;;16.60
34023;BMP280;20673;48.980;8.138;2023-10-13T00:06:57;100118.50;;;16.59
34023;BMP280;20673;48.980;8.138;2023-10-13T00:09:29;100113.68;;;16.57
34023;BMP280;20673;48.980;8.138;2023-10-13T00:11:54;100120.70;;;16.61
34023;BMP280;20673;48.980;8.138;2023-10-13T00:14:22;100116.30;;;16.56
34023;BMP280;20673;48.980;8.138;2023-10-13T00:16:48;100110.64;;;16.53
34023;BMP280;20673;48.980;8.138;2023-10-13T00:19:35;100109.84;;;16.49
34023;BMP280;20673;48.980;8.138;2023-10-13T00:22:15;100108.72;;;16.43
34023;BMP280;20673;48.980;8.138;2023-10-13T00:24:45;100105.04;;;16.43
34023;BMP280;20673;48.980;8.138;2023-10-13T00:27:21;100108.75;;;16.40
34023;BMP280;20673;48.980;8.138;2023-10-13T00:30:07;100103.34;;;16.36
34023;BMP280;20673;48.980;8.138;2023-10-13T00:32:51;100109.56;;;16.32
34023;BMP280;20673;48.980;8.138;2023-10-13T00:35:19;100109.01;;;16.27
34023;BMP280;20673;48.980;8.138;2023-10-13T00:37:59;100106.58;;;16.24
34023;BMP280;20673;48.980;8.138;2023-10-13T00:40:25;100104.55;;;16.20
34023;BMP280;20673;48.980;8.138;2023-10-13T00:42:53;100099.49;;;16.20
34023;BMP280;20673;48.980;8.138;2023-10-13T00:45:20;100107.63;;;16.19
34023;BMP280;20673;48.980;8.138;2023-10-13T00:47:46;100103.09;;;16.16
34023;BMP280;20673;48.980;8.138;2023-10-13T00:50:16;100105.62;;;16.14
34023;BMP280;20673;48.980;8.138;2023-10-13T00:52:45;100102.62;;;16.12
34023;BMP280;20673;48.980;8.138;2023-10-13T00:55:15;100101.60;;;16.09
34023;BMP280;20673;48.980;8.138;2023-10-13T00:57:43;100102.51;;;16.10
34023;BMP280;20673;48.980;8.138;2023-10-13T01:00:12;100096.28;;;16.09
34023;BMP280;20673;48.980;8.138;2023-10-13T01:02:40;100096.93;;;16.05
34023;BMP280;20673;48.980;8.138;2023-10-13T01:05:07;100092.76;;;16.01
34023;BMP280;20673;48.980;8.138;2023-10-13T01:07:37;100092.99;;;15.98
34023;BMP280;20673;48.980;8.138;2023-10-13T01:10:09;100093.23;;;15.99
34023;BMP280;20673;48.980;8.138;2023-10-13T01:12:33;100090.47;;;15.98
34023;BMP280;20673;48.980;8.138;2023-10-13T01:14:59;100095.56;;;16.01
34023;BMP280;20673;48.980;8.138;2023-10-13T01:17:27;100097.79;;;16.01
34023;BMP280;20673;48.980;8.138;2023-10-13T01:19:55;100093.12;;;16.02
34023;BMP280;20673;48.980;8.138;2023-10-13T01:22:23;100095.23;;;16.01
34023;BMP280;20673;48.980;8.138;2023-10-13T01:24:49;100090.43;;;15.99
34023;BMP280;20673;48.980;8.138;2023-10-13T01:27:17;100092.31;;;16.00
34023;BMP280;20673;48.980;8.138;2023-10-13T01:29:44;100086.74;;;15.99
34023;BMP280;20673;48.980;8.138;2023-10-13T01:32:13;100078.17;;;16.01
34023;BMP280;20673;48.980;8.138;2023-10-13T01:34:39;100071.23;;;16.00
34023;BMP280;20673;48.980;8.138;2023-10-13T01:37:05;100066.59;;;15.98
34023;BMP280;20673;48.980;8.138;2023-10-13T01:39:32;100065.08;;;15.94
34023;BMP280;20673;48.980;8.138;2023-10-13T01:41:58;100051.04;;;15.90
34023;BMP280;20673;48.980;8.138;2023-10-13T01:44:25;100052.45;;;15.87
34023;BMP280;20673;48.980;8.138;2023-10-13T01:46:59;100046.92;;;15.87
34023;BMP280;20673;48.980;8.138;2023-10-13T01:49:27;100045.40;;;15.88
34023;BMP280;20673;48.980;8.138;2023-10-13T01:51:54;100041.11;;;15.90
34023;BMP280;20673;48.980;8.138;2023-10-13T01:54:20;100035.13;;;15.93
34023;BMP280;20673;48.980;8.138;2023-10-13T01:56:47;100036.33;;;16.03
34023;BMP280;20673;48.980;8.138;2023-10-13T01:59:14;100033.57;;;16.05
34023;BMP280;20673;48.980;8.138;2023-10-13T02:01:41;100033.14;;;16.12
34023;BMP280;20673;48.980;8.138;2023-10-13T02:04:08;100024.08;;;16.16
34023;BMP280;20673;48.980;8.138;2023-10-13T02:06:37;100021.22;;;16.20
34023;BMP280;20673;48.980;8.138;2023-10-13T02:09:06;100025.87;;;16.20
34023;BMP280;20673;48.980;8.138;2023-10-13T02:11:44;100022.81;;;16.19
34023;BMP280;20673;48.980;8.138;2023-10-13T02:14:14;100021.15;;;16.15
34023;BMP280;20673;48.980;8.138;2023-10-13T02:16:44;100019.17;;;16.12
34023;BMP280;20673;48.980;8.138;2023-10-13T02:19:12;100019.89;;;16.07
34023;BMP280;20673;48.980;8.138;2023-10-13T02:21:39;100022.50;;;16.03
34023;BMP280;20673;48.980;8.138;2023-10-13T02:24:08;100023.95;;;15.97
34023;BMP280;20673;48.980;8.138;2023-10-13T02:26:36;100022.62;;;15.91
34023;BMP280;20673;48.980;8.138;2023-10-13T02:29:05;100022.87;;;15.82
34023;BMP280;20673;48.980;8.138;2023-10-13T02:31:37;100017.96;;;15.74
34023;BMP280;20673;48.980;8.138;2023-10-13T02:34:04;100019.83;;;15.67
34023;BMP280;20673;48.980;8.138;2023-10-13T02:36:38;100028.25;;;15.66
34023;BMP280;20673;48.980;8.138;2023-10-13T02:39:16;100007.86;;;15.52
34023;BMP280;20673;48.980;8.138;2023-10-13T02:41:43;100007.61;;;15.51
34023;BMP280;20673;48.980;8.138;2023-10-13T02:44:11;100018.61;;;15.53
34023;BMP280;20673;48.980;8.138;2023-10-13T02:46:39;100009.38;;;15.49
34023;BMP280;20673;48.980;8.138;2023-10-13T02:49:06;100003.42;;;15.42
34023;BMP280;20673;48.980;8.138;2023-10-13T02:51:37;100004.50;;;15.38
34023;BMP280;20673;48.980;8.138;2023-10-13T02:54:06;100005.12;;;15.38
34023;BMP280;20673;48.980;8.138;2023-10-13T02:56:40;99999.53;;;15.31
34023;BMP280;20673;48.980;8.138;2023-10-13T02:59:10;100004.81;;;15.23
34023;BMP280;20673;48.980;8.138;2023-10-13T03:01:38;99997.40;;;15.19
34023;BMP280;20673;48.980;8.138;2023-10-13T03:04:05;99996.25;;;15.15
34023;BMP280;20673;48.980;8.138;2023-10-13T03:06:39;99994.16;;;15.15
34023;BMP280;20673;48.980;8.138;2023-10-13T03:09:12;99993.40;;;15.04
34023;BMP280;20673;48.980;8.138;2023-10-13T03:11:46;99993.81;;;14.94
34023;BMP280;20673;48.980;8.138;2023-10-13T03:14:21;99993.93;;;14.87
34023;BMP280;20673;48.980;8.138;2023-10-13T03:17:03;99993.48;;;14.86
34023;BMP280;20673;48.980;8.138;2023-10-13T03:19:35;99986.98;;;14.74
34023;BMP280;20673;48.980;8.138;2023-10-13T03:22:05;99984.12;;;14.70
34023;BMP280;20673;48.980;8.138;2023-10-13T03:24:39;99983.14;;;14.67
34023;BMP280;20673;48.980;8.138;2023-10-13T03:27:07;99979.76;;;14.65
34023;BMP280;20673;48.980;8.138;2023-10-13T03:29:40;99980.34;;;14.63
34023;BMP280;20673;48.980;8.138;2023-10-13T03:32:15;99974.03;;;14.58
34023;BMP280;20673;48.980;8.138;2023-10-13T03:34:45;99969.73;;;14.55
34023;BMP280;20673;48.980;8.138;2023-10-13T03:37:22;99975.39;;;14.52
34023;BMP280;20673;48.980;8.138;2023-10-13T03:40:10;99976.50;;;14.48
34023;BMP280;20673;48.980;8.138;2023-10-13T03:42:57;99969.61;;;14.44
34023;BMP280;20673;48.980;8.138;2023-10-13T03:45:45;99966.12;;;14.40
34023;BMP280;20673;48.980;8.138;2023-10-13T03:48:18;99959.89;;;14.33
34023;BMP280;20673;48.980;8.138;2023-10-13T03:50:58;99965.18;;;14.28
34023;BMP280;20673;48.980;8.138;2023-10-13T03:53:36;99956.16;;;14.24
34023;BMP280;20673;48.980;8.138;2023-10-13T03:56:06;99955.76;;;14.20
34023;BMP280;20673;48.980;8.138;2023-10-13T03:58:41;99958.41;;;14.15
34023;BMP280;20673;48.980;8.138;2023-10-13T04:01:14;99961.31;;;14.10
34023;BMP280;20673;48.980;8.138;2023-10-13T04:03:42;99955.61;;;14.07
34023;BMP280;20673;48.980;8.138;2023-10-13T04:06:26;99951.11;;;14.02
34023;BMP280;20673;48.980;8.138;2023-10-13T04:09:21;99952.54;;;13.95
34023;BMP280;20673;48.980;8.138;2023-10-13T04:12:06;99947.06;;;13.89
34023;BMP280;20673;48.980;8.138;2023-10-13T04:14:44;99949.09;;;13.82
34023;BMP280;20673;48.980;8.138;2023-10-13T04:17:12;99950.51;;;13.75
34023;BMP280;20673;48.980;8.138;2023-10-13T04:19:44;99945.65;;;13.69
34023;BMP280;20673;48.980;8.138;2023-10-13T04:22:28;99937.17;;;13.65
34023;BMP280;20673;48.980;8.138;2023-10-13T04:25:23;99937.18;;;13.64
34023;BMP280;20673;48.980;8.138;2023-10-13T04:28:12;99941.69;;;13.60
34023;BMP280;20673;48.980;8.138;2023-10-13T04:30:49;99938.19;;;13.57
34023;BMP280;20673;48.980;8.138;2023-10-13T04:33:26;99931.86;;;13.54
34023;BMP280;20673;48.980;8.138;2023-10-13T04:36:11;99929.23;;;13.49
34023;BMP280;20673;48.980;8.138;2023-10-13T04:41:40;99921.36;;;13.41
34023;BMP280;20673;48.980;8.138;2023-10-13T04:44:14;99915.59;;;13.38
34023;BMP280;20673;48.980;8.138;2023-10-13T04:46:59;99910.51;;;13.35
34023;BMP280;20673;48.980;8.138;2023-10-13T04:49:31;99907.14;;;13.32
34023;BMP280;20673;48.980;8.138;2023-10-13T04:52:02;99901.14;;;13.30
34023;BMP280;20673;48.980;8.138;2023-10-13T04:54:31;99896.29;;;13.32
34023;BMP280;20673;48.980;8.138;2023-10-13T04:57:01;99897.11;;;13.35
34023;BMP280;20673;48.980;8.138;2023-10-13T04:59:48;99893.56;;;13.42
34023;BMP280;20673;48.980;8.138;2023-10-13T05:02:32;99898.36;;;13.45
34023;BMP280;20673;48.980;8.138;2023-10-13T05:05:07;99900.11;;;13.51
34023;BMP280;20673;48.980;8.138;2023-10-13T05:07:53;99904.69;;;13.50
34023;BMP280;20673;48.980;8.138;2023-10-13T05:10:38;99906.98;;;13.52
34023;BMP280;20673;48.980;8.138;2023-10-13T05:13:22;99903.64;;;13.53
34023;BMP280;20673;48.980;8.138;2023-10-13T05:16:07;99905.10;;;13.53
34023;BMP280;20673;48.980;8.138;2023-10-13T05:18:51;99908.72;;;13.58
34023;BMP280;20673;48.980;8.138;2023-10-13T05:21:32;99914.07;;;13.58
34023;BMP280;20673;48.980;8.138;2023-10-13T05:24:16;99918.87;;;13.58
34023;BMP280;20673;48.980;8.138;2023-10-13T05:27:00;99916.98;;;13.58
34023;BMP280;20673;48.980;8.138;2023-10-13T05:29:47;99917.15;;;13.59
34023;BMP280;20673;48.980;8.138;2023-10-13T05:32:32;99912.86;;;13.60
34023;BMP280;20673;48.980;8.138;2023-10-13T05:35:19;99909.43;;;13.59
34023;BMP280;20673;48.980;8.138;2023-10-13T05:38:03;99909.09;;;13.58
34023;BMP280;20673;48.980;8.138;2023-10-13T05:40:57;99912.93;;;13.59
34023;BMP280;20673;48.980;8.138;2023-10-13T05:43:41;99907.42;;;13.58
34023;BMP280;20673;48.980;8.138;2023-10-13T05:46:26;99909.18;;;13.59
34023;BMP280;20673;48.980;8.138;2023-10-13T05:48:54;99905.17;;;13.58
34023;BMP280;20673;48.980;8.138;2023-10-13T05:51:30;99905.93;;;13.57
34023;BMP280;20673;48.980;8.138;2023-10-13T05:54:15;99900.42;;;13.59
34023;BMP280;20673;48.980;8.138;2023-10-13T05:56:49;99898.14;;;13.65
34023;BMP280;20673;48.980;8.138;2023-10-13T05:59:40;99898.29;;;13.70
34023;BMP280;20673;48.980;8.138;2023-10-13T06:02:23;99902.61;;;13.71
34023;BMP280;20673;48.980;8.138;2023-10-13T06:05:10;99899.96;;;13.73
34023;BMP280;20673;48.980;8.138;2023-10-13T06:07:56;99902.68;;;13.72
34023;BMP280;20673;48.980;8.138;2023-10-13T06:10:42;99902.59;;;13.74
34023;BMP280;20673;48.980;8.138;2023-10-13T06:13:27;99904.89;;;13.75
34023;BMP280;20673;48.980;8.138;2023-10-13T06:16:16;99911.18;;;13.78
34023;BMP280;20673;48.980;8.138;2023-10-13T06:19:01;99908.62;;;13.82
34023;BMP280;20673;48.980;8.138;2023-10-13T06:21:46;99914.79;;;13.85
34023;BMP280;20673;48.980;8.138;2023-10-13T06:24:31;99904.76;;;13.87
34023;BMP280;20673;48.980;8.138;2023-10-13T06:27:16;99896.01;;;13.90
34023;BMP280;20673;48.980;8.138;2023-10-13T06:30:04;99903.63;;;13.97
34023;BMP280;20673;48.980;8.138;2023-10-13T06:32:31;99902.98;;;14.03
34023;BMP280;20673;48.980;8.138;2023-10-13T06:34:59;99900.78;;;14.10
34023;BMP280;20673;48.980;8.138;2023-10-13T06:37:33;99903.13;;;14.17
34023;BMP280;20673;48.980;8.138;2023-10-13T06:40:12;99904.51;;;14.26
34023;BMP280;20673;48.980;8.138;2023-10-13T06:42:49;99904.36;;;14.39
34023;BMP280;20673;48.980;8.138;2023-10-13T06:45:15;99898.48;;;14.51
34023;BMP280;20673;48.980;8.138;2023-10-13T06:47:44;99898.25;;;14.65
34023;BMP280;20673;48.980;8.138;2023-10-13T06:50:15;99908.51;;;14.76
34023;BMP280;20673;48.980;8.138;2023-10-13T06:52:43;99907.73;;;14.91
34023;BMP280;20673;48.980;8.138;2023-10-13T06:55:09;99912.19;;;15.03
34023;BMP280;20673;48.980;8.138;2023-10-13T06:57:38;99912.46;;;15.16
34023;BMP280;20673;48.980;8.138;2023-10-13T07:00:07;99913.63;;;15.31
34023;BMP280;20673;48.980;8.138;2023-10-13T07:02:34;99907.92;;;15.46
34023;BMP280;20673;48.980;8.138;2023-10-13T07:05:01;99908.16;;;15.59
34023;BMP280;20673;48.980;8.138;2023-10-13T07:07:31;99910.21;;;15.72
34023;BMP280;20673;48.980;8.138;2023-10-13T07:09:58;99912.50;;;15.87
34023;BMP280;20673;48.980;8.138;2023-10-13T07:12:25;99912.22;;;16.01
34023;BMP280;20673;48.980;8.138;2023-10-13T07:14:56;99905.75;;;16.19
34023;BMP280;20673;48.980;8.138;2023-10-13T07:17:39;99903.56;;;16.44
34023;BMP280;20673;48.980;8.138;2023-10-13T07:20:07;99904.56;;;16.70
34023;BMP280;20673;48.980;8.138;2023-10-13T07:22:44;99899.73;;;16.95
34023;BMP280;20673;48.980;8.138;2023-10-13T07:25:34;99900.28;;;17.22
34023;BMP280;20673;48.980;8.138;2023-10-13T07:28:04;99894.48;;;17.53
34023;BMP280;20673;48.980;8.138;2023-10-13T07:30:32;99895.12;;;17.68
34023;BMP280;20673;48.980;8.138;2023-10-13T07:33:00;99891.17;;;17.93
34023;BMP280;20673;48.980;8.138;2023-10-13T07:35:26;99885.31;;;18.22
34023;BMP280;20673;48.980;8.138;2023-10-13T07:37:54;99892.83;;;18.43
34023;BMP280;20673;48.980;8.138;2023-10-13T07:40:22;99899.40;;;18.65
34023;BMP280;20673;48.980;8.138;2023-10-13T07:42:54;99894.79;;;18.87
34023;BMP280;20673;48.980;8.138;2023-10-13T07:45:30;99894.46;;;19.13
34023;BMP280;20673;48.980;8.138;2023-10-13T07:48:10;99896.72;;;19.33
34023;BMP280;20673;48.980;8.138;2023-10-13T07:51:01;99896.04;;;19.56
34023;BMP280;20673;48.980;8.138;2023-10-13T07:53:31;99896.12;;;19.88
34023;BMP280;20673;48.980;8.138;2023-10-13T07:56:03;99894.48;;;20.05
34023;BMP280;20673;48.980;8.138;2023-10-13T07:58:34;99889.95;;;20.33
34023;BMP280;20673;48.980;8.138;2023-10-13T08:01:02;99888.17;;;20.44
34023;BMP280;20673;48.980;8.138;2023-10-13T08:03:35;99889.89;;;20.38
34023;BMP280;20673;48.980;8.138;2023-10-13T08:06:17;99891.23;;;20.33
34023;BMP280;20673;48.980;8.138;2023-10-13T08:08:46;99893.38;;;20.35
34023;BMP280;20673;48.980;8.138;2023-10-13T08:11:17;99892.61;;;20.43
34023;BMP280;20673;48.980;8.138;2023-10-13T08:13:57;99892.10;;;20.46
34023;BMP280;20673;48.980;8.138;2023-10-13T08:16:42;99894.40;;;20.75
34023;BMP280;20673;48.980;8.138;2023-10-13T08:19:15;99889.72;;;20.97
34023;BMP280;20673;48.980;8.138;2023-10-13T08:21:43;99884.48;;;21.19
34023;BMP280;20673;48.980;8.138;2023-10-13T08:24:20;99887.73;;;21.56
34023;BMP280;20673;48.980;8.138;2023-10-13T08:26:58;99883.65;;;21.94
34023;BMP280;20673;48.980;8.138;2023-10-13T08:29:44;99879.96;;;22.30
34023;BMP280;20673;48.980;8.138;2023-10-13T08:32:26;99878.90;;;22.55
34023;BMP280;20673;48.980;8.138;2023-10-13T08:34:58;99883.68;;;22.85
34023;BMP280;20673;48.980;8.138;2023-10-13T08:37:28;99879.26;;;22.96
34023;BMP280;20673;48.980;8.138;2023-10-13T08:39:57;99884.36;;;23.18
34023;BMP280;20673;48.980;8.138;2023-10-13T08:42:38;99890.89;;;23.36
34023;BMP280;20673;48.980;8.138;2023-10-13T08:45:14;99891.75;;;23.63
34023;BMP280;20673;48.980;8.138;2023-10-13T08:47:56;99887.38;;;23.71
34023;BMP280;20673;48.980;8.138;2023-10-13T08:50:49;99874.53;;;23.95
34023;BMP280;20673;48.980;8.138;2023-10-13T08:53:28;99880.24;;;24.11
34023;BMP280;20673;48.980;8.138;2023-10-13T08:58:47;99864.93;;;23.97
34023;BMP280;20673;48.980;8.138;2023-10-13T09:01:31;99873.47;;;24.14
34023;BMP280;20673;48.980;8.138;2023-10-13T09:04:19;99865.11;;;24.37
34023;BMP280;20673;48.980;8.138;2023-10-13T09:06:58;99858.84;;;24.70
34023;BMP280;20673;48.980;8.138;2023-10-13T09:12:24;99860.49;;;24.96
34023;BMP280;20673;48.980;8.138;2023-10-13T09:15:08;99859.39;;;25.16
34023;BMP280;20673;48.980;8.138;2023-10-13T09:17:49;99849.93;;;25.51
34023;BMP280;20673;48.980;8.138;2023-10-13T09:20:30;99856.54;;;25.72
34023;BMP280;20673;48.980;8.138;2023-10-13T09:23:13;99843.70;;;25.98
34023;BMP280;20673;48.980;8.138;2023-10-13T09:25:41;99834.79;;;26.59
34023;BMP280;20673;48.980;8.138;2023-10-13T09:28:21;99835.42;;;26.97
34023;BMP280;20673;48.980;8.138;2023-10-13T09:30:51;99831.64;;;27.12
34023;BMP280;20673;48.980;8.138;2023-10-13T09:33:25;99828.83;;;27.67
34023;BMP280;20673;48.980;8.138;2023-10-13T09:36:06;99828.40;;;28.10
34023;BMP280;20673;48.980;8.138;2023-10-13T09:38:36;99824.86;;;28.41
34023;BMP280;20673;48.980;8.138;2023-10-13T09:41:05;99820.08;;;28.52
34023;BMP280;20673;48.980;8.138;2023-10-13T09:43:39;99817.62;;;28.78
34023;BMP280;20673;48.980;8.138;2023-10-13T09:46:08;99818.47;;;29.37
34023;BMP280;20673;48.980;8.138;2023-10-13T09:48:38;99811.84;;;29.36
34023;BMP280;20673;48.980;8.138;2023-10-13T09:51:15;99826.25;;;29.37
34023;BMP280;20673;48.980;8.138;2023-10-13T09:53:48;99813.15;;;29.38
34023;BMP280;20673;48.980;8.138;2023-10-13T09:56:20;99805.81;;;29.24
34023;BMP280;20673;48.980;8.138;2023-10-13T09:58:59;99804.23;;;29.22
34023;BMP280;20673;48.980;8.138;2023-10-13T10:01:28;99803.19;;;28.94
34023;BMP280;20673;48.980;8.138;2023-10-13T10:04:11;99798.66;;;28.92
34023;BMP280;20673;48.980;8.138;2023-10-13T10:06:54;99792.34;;;29.42
34023;BMP280;20673;48.980;8.138;2023-10-13T10:09:28;99786.33;;;29.26
34023;BMP280;20673;48.980;8.138;2023-10-13T10:13:07;99784.45;;;29.43
34023;BMP280;20673;48.980;8.138;2023-10-13T10:15:29;99784.42;;;29.86
34023;BMP280;20673;48.980;8.138;2023-10-13T10:17:58;99789.45;;;30.20
34023;BMP280;20673;48.980;8.138;2023-10-13T10:20:34;99778.28;;;30.39
34023;BMP280;20673;48.980;8.138;2023-10-13T10:23:08;99784.73;;;30.29
34023;BMP280;20673;48.980;8.138;2023-10-13T10:25:36;99773.08;;;30.57
34023;BMP280;20673;48.980;8.138;2023-10-13T10:28:06;99783.09;;;30.86
34023;BMP280;20673;48.980;8.138;2023-10-13T10:30:37;99785.79;;;30.91
34023;BMP280;20673;48.980;8.138;2023-10-13T10:33:09;99785.14;;;31.39
34023;BMP280;20673;48.980;8.138;2023-10-13T10:35:46;99785.59;;;31.28
34023;BMP280;20673;48.980;8.138;2023-10-13T10:38:19;99785.04;;;31.27
34023;BMP280;20673;48.980;8.138;2023-10-13T10:41:06;99783.65;;;31.35
34023;BMP280;20673;48.980;8.138;2023-10-13T10:43:39;99780.75;;;31.40
34023;BMP280;20673;48.980;8.138;2023-10-13T10:46:26;99770.00;;;31.92
34023;BMP280;20673;48.980;8.138;2023-10-13T10:48:58;99774.87;;;32.41
34023;BMP280;20673;48.980;8.138;2023-10-13T10:51:28;99766.72;;;31.70
34023;BMP280;20673;48.980;8.138;2023-10-13T10:53:58;99754.50;;;32.15
34023;BMP280;20673;48.980;8.138;2023-10-13T10:56:26;99755.08;;;31.75
34023;BMP280;20673;48.980;8.138;2023-10-13T10:59:06;99749.54;;;31.12
34023;BMP280;20673;48.980;8.138;2023-10-13T11:01:42;99742.48;;;31.24
34023;BMP280;20673;48.980;8.138;2023-10-13T11:04:10;99758.97;;;31.32
34023;BMP280;20673;48.980;8.138;2023-10-13T11:06:56;99744.24;;;31.37
34023;BMP280;20673;48.980;8.138;2023-10-13T11:09:32;99743.66;;;31.42
34023;BMP280;20673;48.980;8.138;2023-10-13T11:14:45;99728.81;;;31.46
34023;BMP280;20673;48.980;8.138;2023-10-13T11:17:23;99715.01;;;31.55
34023;BMP280;20673;48.980;8.138;2023-10-13T11:19:54;99706.24;;;31.61
34023;BMP280;20673;48.980;8.138;2023-10-13T11:22:22;99708.80;;;31.53
34023;BMP280;20673;48.980;8.138;2023-10-13T11:25:06;99689.94;;;31.76
34023;BMP280;20673;48.980;8.138;2023-10-13T11:27:42;99693.77;;;31.82
34023;BMP280;20673;48.980;8.138;2023-10-13T11:30:14;99690.40;;;31.64
34023;BMP280;20673;48.980;8.138;2023-10-13T11:32:42;99682.37;;;31.96
34023;BMP280;20673;48.980;8.138;2023-10-13T11:35:11;99680.56;;;31.76
34023;BMP280;20673;48.980;8.138;2023-10-13T11:37:39;99682.34;;;31.53
34023;BMP280;20673;48.980;8.138;2023-10-13T11:40:08;99668.54;;;31.71
34023;BMP280;20673;48.980;8.138;2023-10-13T11:42:38;99666.01;;;31.52
34023;BMP280;20673;48.980;8.138;2023-10-13T11:45:07;99667.66;;;31.61
34023;BMP280;20673;48.980;8.138;2023-10-13T11:47:43;99652.90;;;32.03
34023;BMP280;20673;48.980;8.138;2023-10-13T11:50:20;99652.31;;;31.89
34023;BMP280;20673;48.980;8.138;2023-10-13T11:52:48;99641.61;;;31.88
34023;BMP280;20673;48.980;8.138;2023-10-13T11:55:15;99643.36;;;32.20
34023;BMP280;20673;48.980;8.138;2023-10-13T11:57:43;99640.40;;;32.43
34023;BMP280;20673;48.980;8.138;2023-10-13T12:00:11;99639.93;;;32.27
34023;BMP280;20673;48.980;8.138;2023-10-13T12:02:45;99637.50;;;32.66
34023;BMP280;20673;48.980;8.138;2023-10-13T12:05:31;99640.59;;;31.98
34023;BMP280;20673;48.980;8.138;2023-10-13T12:07:59;99633.11;;;31.94
34023;BMP280;20673;48.980;8.138;2023-10-13T12:10:28;99628.73;;;31.81
34023;BMP280;20673;48.980;8.138;2023-10-13T12:13:01;99628.83;;;31.92
34023;BMP280;20673;48.980;8.138;2023-10-13T12:15:29;99626.60;;;32.08
34023;BMP280;20673;48.980;8.138;2023-10-13T12:17:57;99623.04;;;32.34
34023;BMP280;20673;48.980;8.138;2023-10-13T12:20:24;99618.57;;;32.49
34023;BMP280;20673;48.980;8.138;2023-10-13T12:23:00;99617.25;;;32.57
34023;BMP280;20673;48.980;8.138;2023-10-13T12:25:28;99616.09;;;32.46
34023;BMP280;20673;48.980;8.138;2023-10-13T12:27:59;99616.99;;;32.32
34023;BMP280;20673;48.980;8.138;2023-10-13T12:30:27;99611.99;;;32.09
34023;BMP280;20673;48.980;8.138;2023-10-13T12:33:04;99603.87;;;32.42
34023;BMP280;20673;48.980;8.138;2023-10-13T12:35:41;99598.42;;;32.12
34023;BMP280;20673;48.980;8.138;2023-10-13T12:38:25;99596.60;;;32.09
34023;BMP280;20673;48.980;8.138;2023-10-13T12:41:09;99591.86;;;31.21
34023;BMP280;20673;48.980;8.138;2023-10-13T12:43:57;99590.10;;;31.13
34023;BMP280;20673;48.980;8.138;2023-10-13T12:46:41;99574.93;;;30.72
34023;BMP280;20673;48.980;8.138;2023-10-13T12:49:26;99577.18;;;30.75
34023;BMP280;20673;48.980;8.138;2023-10-13T12:52:06;99555.77;;;30.52
34023;BMP280;20673;48.980;8.138;2023-10-13T12:54:35;99563.04;;;30.79
34023;BMP280;20673;48.980;8.138;2023-10-13T12:57:01;99546.92;;;30.93
34023;BMP280;20673;48.980;8.138;2023-10-13T12:59:28;99547.11;;;30.70
34023;BMP280;20673;48.980;8.138;2023-10-13T13:01:54;99553.29;;;30.97
34023;BMP280;20673;48.980;8.138;2023-10-13T13:04:21;99559.43;;;30.88
34023;BMP280;20673;48.980;8.138;2023-10-13T13:06:49;99551.03;;;30.58
34023;BMP280;20673;48.980;8.138;2023-10-13T13:09:16;99551.98;;;30.51
34023;BMP280;20673;48.980;8.138;2023-10-13T13:11:44;99546.04;;;30.87
34023;BMP280;20673;48.980;8.138;2023-10-13T13:14:12;99536.15;;;30.90
34023;BMP280;20673;48.980;8.138;2023-10-13T13:16:38;99534.59;;;31.14
34023;BMP280;20673;48.980;8.138;2023-10-13T13:19:05;99530.61;;;31.51
34023;BMP280;20673;48.980;8.138;2023-10-13T13:21:38;99527.08;;;31.39
34023;BMP280;20673;48.980;8.138;2023-10-13T13:24:06;99516.65;;;31.40
34023;BMP280;20673;48.980;8.138;2023-10-13T13:26:39;99507.22;;;31.86
34023;BMP280;20673;48.980;8.138;2023-10-13T13:29:08;99508.37;;;32.72
34023;BMP280;20673;48.980;8.138;2023-10-13T13:31:37;99501.65;;;32.45
34023;BMP280;20673;48.980;8.138;2023-10-13T13:34:10;99491.54;;;32.34
34023;BMP280;20673;48.980;8.138;2023-10-13T13:36:39;99484.84;;;32.40
34023;BMP280;20673;48.980;8.138;2023-10-13T13:39:07;99485.59;;;32.63
34023;BMP280;20673;48.980;8.138;2023-10-13T13:41:33;99476.13;;;32.39
34023;BMP280;20673;48.980;8.138;2023-10-13T13:43:59;99473.31;;;32.33
34023;BMP280;20673;48.980;8.138;2023-10-13T13:46:27;99464.47;;;32.47
34023;BMP280;20673;48.980;8.138;2023-10-13T13:48:55;99465.89;;;31.89
34023;BMP280;20673;48.980;8.138;2023-10-13T13:51:27;99459.46;;;32.04
34023;BMP280;20673;48.980;8.138;2023-10-13T13:53:55;99450.65;;;32.10
34023;BMP280;20673;48.980;8.138;2023-10-13T13:56:22;99447.36;;;31.81
34023;BMP280;20673;48.980;8.138;2023-10-13T13:58:52;99448.01;;;31.80
34023;BMP280;20673;48.980;8.138;2023-10-13T14:01:21;99444.65;;;31.87
34023;BMP280;20673;48.980;8.138;2023-10-13T14:03:49;99438.36;;;31.97
34023;BMP280;20673;48.980;8.138;2023-10-13T14:06:20;99435.18;;;32.43
34023;BMP280;20673;48.980;8.138;2023-10-13T14:08:50;99434.38;;;32.02
34023;BMP280;20673;48.980;8.138;2023-10-13T14:11:32;99433.01;;;32.06
34023;BMP280;20673;48.980;8.138;2023-10-13T14:14:13;99434.36;;;31.68
34023;BMP280;20673;48.980;8.138;2023-10-13T14:16:43;99433.83;;;31.80
34023;BMP280;20673;48.980;8.138;2023-10-13T14:19:14;99423.75;;;31.88
34023;BMP280;20673;48.980;8.138;2023-10-13T14:21:59;99419.80;;;31.92
34023;BMP280;20673;48.980;8.138;2023-10-13T14:24:27;99415.00;;;31.95
34023;BMP280;20673;48.980;8.138;2023-10-13T14:27:01;99416.57;;;32.06
34023;BMP280;20673;48.980;8.138;2023-10-13T14:29:26;99414.04;;;31.71
34023;BMP280;20673;48.980;8.138;2023-10-13T14:31:52;99408.67;;;31.84
34023;BMP280;20673;48.980;8.138;2023-10-13T14:34:19;99407.45;;;31.90
34023;BMP280;20673;48.980;8.138;2023-10-13T14:36:47;99399.58;;;32.30
34023;BMP280;20673;48.980;8.138;2023-10-13T14:39:14;99397.31;;;32.33
34023;BMP280;20673;48.980;8.138;2023-10-13T14:41:41;99381.77;;;32.43
34023;BMP280;20673;48.980;8.138;2023-10-13T14:44:07;99379.88;;;32.45
34023;BMP280;20673;48.980;8.138;2023-10-13T14:46:34;99379.04;;;32.56
34023;BMP280;20673;48.980;8.138;2023-10-13T14:49:07;99370.97;;;32.70
34023;BMP280;20673;48.980;8.138;2023-10-13T14:51:33;99365.95;;;32.68
34023;BMP280;20673;48.980;8.138;2023-10-13T14:53:59;99359.62;;;32.78
34023;BMP280;20673;48.980;8.138;2023-10-13T14:56:27;99364.37;;;32.86